Southwest Georgia Regional Airport Albany US
ICAO: KABY
IATA: ABY
Category: Medium
Scheduled Services: Yes

Elevation: 197 ft
TransAlt. 18000 ft.

Airport Communications:
ATIS:133.05
JACKSONVILLE CNTR:125.75
CTAF:120.25
GND:121.9
MACON RDO:122.6
TWR:120.25
UNICOM:122.95

KABY Zoom In..

Runways:

(A) RW 04 length 6601 ft width 148 ft
ILS 108.50 / hdg 44

(B) RW 16 length 5219 ft width 148 ft
---- / hdg 164

(C) RW 22 length 6601 ft width 148 ft
---- / hdg 224

(D) RW 34 length 5219 ft width 148 ft
---- / hdg 344

Location; KABY
Day. 15 / Time. 22.53 Zulu
* Altimeter: 30.02
* Temperature: 25° c. 77°f.
* Wind from: 000° Speed 00 kn.
Dewpoint: 24° c.
Visibility: 10 Statute Miles.
Clouds: Few 12000 ft.
Conditions: Light Rain.

KABY 152253Z 00000KT 10SM -RA FEW120 25/24 A3002 RMK AO2 RAB39 SLP164 P0001 T02500239


Wind - Calm.

 
 
jpsmedia.com for Web Design worldairports.se 2018   terms of use